Airfield :
LOGIN :

Register | Disclaimer

   EN    FR    IT 

 










Legend :    VFR   Marginal VFR   IFR   Intensive IFR   Very Intensive IFR
Visi :
Ceiling :
>= 8 km
>= 3000ft
5 to 8 km
1000 to 3000 ft
1500m to 5 km
500 to 1000 ft
800 to 1500m
200 to 500 ft
< 800m
< 200 ft
Symbols :   Thunderstorms  Fog  Heavy snow  Heavy precipitations  Wind > 20 kt
SIGMETs :     Misc.  Thunderstorms  Icing  Turbulence  Mountain Waves  Volcanic Ashes






- Airport Elevation : 126 ft
- IATA code : WIC


EGPC - Wick

CURRENT METAR :
  • 280350Z AUTO 14001KT 6000 SCT017/// SCT031/// 10/10 Q1008

EXPIRED METARs :
  • 280320Z AUTO 11002KT 0500 FG FEW020/// SCT029/// 10/09 Q1008
  • 280250Z AUTO 00000KT 9999 SCT018/// OVC027/// 11/10 Q1008
  • 280220Z AUTO 00000KT 9999 BKN016/// OVC021/// 11/11 Q1008
  • 280150Z AUTO 00000KT 9999 FEW007/// SCT019/// BKN024/// 11/11 Q1008 RERA REDZ
  • 280120Z AUTO VRB01KT 1800 RA SCT004/// BKN009/// OVC014/// 11/11 Q1008
  • 280050Z AUTO 21001KT 4000 HZ FEW015/// BKN021/// OVC034/// 12/10 Q1008
  • 280020Z AUTO 26002KT 9999 BKN028/// OVC038/// 11/10 Q1008
  • 272350Z AUTO 27002KT 9999 BKN032/// BKN044/// 11/10 Q1008
  • 272320Z AUTO 27002KT 9999 BKN029/// BKN034/// OVC041/// 11/10 Q1008

TAF AMD TAF EGPC
Valid from the 28 at 03:00 until the 28 at 12:00 UTC


280330Z 2803/2812 15005KT 9999 FEW010 SCT035
TEMPO 2803/2806 0400 FG VV///
ATIS : +44 1955 607 596



MET'MAP, your aeronautical weather chart ! - Copyright ORBIFLY December 2007 - Disclaimer

ORBIFLY MET'MAP TEAM :

Programming & Development : Alexandra Zaïnal
Original concept : Baudouin d'Aumeries
Technical & hardware support : Manuel Goepfert
Assistance : Marc-Olivier Méhu




SOURCES & CREDITS :

   NOAA